createdAt,value
2017-08-10T00:00:14.611Z,0
2017-08-10T00:01:14.516Z,0
2017-08-10T00:02:14.525Z,0
2017-08-10T00:03:14.546Z,0
2017-08-10T00:04:14.567Z,0
2017-08-10T00:05:14.606Z,0
2017-08-10T00:06:14.549Z,0
2017-08-10T00:07:14.608Z,0
2017-08-10T00:08:14.555Z,0
2017-08-10T00:09:14.523Z,0
2017-08-10T00:10:14.522Z,0
2017-08-10T00:11:14.522Z,0
2017-08-10T00:12:14.607Z,0
2017-08-10T00:13:14.621Z,0
2017-08-10T00:14:14.543Z,0
2017-08-10T00:15:14.520Z,0
2017-08-10T00:16:14.520Z,0
2017-08-10T00:17:14.571Z,0
2017-08-10T00:18:14.527Z,0
2017-08-10T00:19:14.542Z,0
2017-08-10T00:20:14.595Z,0
2017-08-10T00:21:14.561Z,0
2017-08-10T00:22:14.529Z,0
2017-08-10T00:23:14.619Z,0
2017-08-10T00:24:14.613Z,0
2017-08-10T00:25:14.593Z,0
2017-08-10T00:26:14.618Z,0
2017-08-10T00:27:14.534Z,0
2017-08-10T00:28:14.553Z,0
2017-08-10T00:29:14.584Z,0
2017-08-10T00:30:14.522Z,0
2017-08-10T00:31:14.551Z,0
2017-08-10T00:32:14.592Z,0
2017-08-10T00:33:14.585Z,0
2017-08-10T00:34:14.520Z,0
2017-08-10T00:35:14.527Z,0
2017-08-10T00:36:14.594Z,0
2017-08-10T00:37:14.593Z,0
2017-08-10T00:38:14.611Z,0
2017-08-10T00:39:14.542Z,0
2017-08-10T00:40:14.562Z,0
2017-08-10T00:41:14.537Z,0
2017-08-10T00:42:14.560Z,0
2017-08-10T00:43:14.545Z,0
2017-08-10T00:44:14.595Z,0
2017-08-10T00:45:14.571Z,0
2017-08-10T00:46:14.631Z,0
2017-08-10T00:47:14.664Z,0
2017-08-10T00:48:14.566Z,0
2017-08-10T00:49:14.631Z,0
2017-08-10T00:50:14.639Z,0
2017-08-10T00:51:14.546Z,0
2017-08-10T00:52:14.546Z,0
2017-08-10T00:53:14.642Z,0
2017-08-10T00:54:14.580Z,0
2017-08-10T00:55:14.546Z,0
2017-08-10T00:56:14.614Z,0
2017-08-10T00:57:14.574Z,0
2017-08-10T00:58:14.582Z,0
2017-08-10T00:59:14.616Z,0
2017-08-10T01:00:14.578Z,0
2017-08-10T01:01:14.619Z,0
2017-08-10T01:02:14.616Z,0
2017-08-10T01:03:14.611Z,0
2017-08-10T01:04:14.583Z,0
2017-08-10T01:05:14.619Z,0
2017-08-10T01:06:14.645Z,0
2017-08-10T01:07:14.552Z,0
2017-08-10T01:08:14.572Z,0
2017-08-10T01:09:14.549Z,0
2017-08-10T01:10:14.608Z,0
2017-08-10T01:11:14.548Z,0
2017-08-10T01:12:14.550Z,0
2017-08-10T01:13:14.553Z,0
2017-08-10T01:14:14.546Z,0
2017-08-10T01:15:14.615Z,0
2017-08-10T01:16:14.551Z,0
2017-08-10T01:17:14.555Z,0
2017-08-10T01:18:14.591Z,0
2017-08-10T01:19:14.599Z,0
2017-08-10T01:20:14.561Z,0
2017-08-10T01:21:14.591Z,0
2017-08-10T01:22:14.582Z,0
2017-08-10T01:23:14.631Z,0
2017-08-10T01:24:14.624Z,0
2017-08-10T01:25:14.596Z,0
2017-08-10T01:26:14.595Z,0
2017-08-10T01:27:14.563Z,0
2017-08-10T01:28:14.560Z,0
2017-08-10T01:29:14.594Z,0
2017-08-10T01:30:14.624Z,0
2017-08-10T01:31:14.636Z,0
2017-08-10T01:32:14.594Z,0
2017-08-10T01:33:14.618Z,0
2017-08-10T01:34:14.602Z,0
2017-08-10T01:35:14.647Z,0
2017-08-10T01:36:14.620Z,0
2017-08-10T01:37:14.621Z,0
2017-08-10T01:38:14.621Z,0
2017-08-10T01:39:14.635Z,0
2017-08-10T01:40:14.580Z,0
2017-08-10T01:41:14.567Z,0
2017-08-10T01:42:14.605Z,0
2017-08-10T01:43:14.577Z,0
2017-08-10T01:44:14.602Z,0
2017-08-10T01:45:14.577Z,0
2017-08-10T01:46:14.612Z,0
2017-08-10T01:47:14.634Z,0
2017-08-10T01:48:14.629Z,0
2017-08-10T01:49:14.628Z,0
2017-08-10T01:50:14.633Z,0
2017-08-10T01:51:14.566Z,0
2017-08-10T01:52:14.628Z,0
2017-08-10T01:53:14.596Z,0
2017-08-10T01:54:14.568Z,0
2017-08-10T01:55:14.577Z,0
2017-08-10T01:56:14.570Z,0
2017-08-10T01:57:14.574Z,0
2017-08-10T01:58:14.712Z,0
2017-08-10T01:59:14.579Z,0
2017-08-10T02:00:14.522Z,0
2017-08-10T02:01:14.594Z,0
2017-08-10T02:02:14.598Z,0
2017-08-10T02:03:14.528Z,0
2017-08-10T02:04:14.580Z,0
2017-08-10T02:05:14.634Z,0
2017-08-10T02:06:14.573Z,0
2017-08-10T02:07:14.590Z,0
2017-08-10T02:08:14.683Z,0
2017-08-10T02:09:14.674Z,0
2017-08-10T02:10:14.645Z,0
2017-08-10T02:11:14.610Z,0
2017-08-10T02:12:14.594Z,0
2017-08-10T02:13:14.622Z,0
2017-08-10T02:14:14.685Z,0
2017-08-10T02:15:14.625Z,0
2017-08-10T02:16:14.597Z,0
2017-08-10T02:17:14.627Z,0
2017-08-10T02:18:14.600Z,0
2017-08-10T02:19:14.681Z,0
2017-08-10T02:20:14.594Z,0
2017-08-10T02:21:14.700Z,0
2017-08-10T02:22:14.662Z,0
2017-08-10T02:23:14.592Z,0
2017-08-10T02:24:14.691Z,0
2017-08-10T02:25:14.657Z,0
2017-08-10T02:26:14.634Z,0
2017-08-10T02:27:14.683Z,0
2017-08-10T02:28:14.627Z,0
2017-08-10T02:29:14.637Z,0
2017-08-10T02:30:14.689Z,0
2017-08-10T02:31:14.689Z,0
2017-08-10T02:32:14.694Z,0
2017-08-10T02:33:14.688Z,0
2017-08-10T02:34:14.642Z,0
2017-08-10T02:35:14.659Z,0
2017-08-10T02:36:14.635Z,0
2017-08-10T02:37:14.608Z,0
2017-08-10T02:38:14.509Z,0
2017-08-10T02:39:14.592Z,0
2017-08-10T02:40:14.591Z,0
2017-08-10T02:41:14.598Z,0
2017-08-10T02:42:14.513Z,0
2017-08-10T02:43:14.557Z,0
2017-08-10T02:44:14.594Z,0
2017-08-10T02:45:14.593Z,0
2017-08-10T02:46:14.514Z,0
2017-08-10T02:47:14.559Z,0
2017-08-10T02:48:14.633Z,0
2017-08-10T02:49:14.664Z,0
2017-08-10T02:50:14.675Z,0
2017-08-10T02:51:14.662Z,0
2017-08-10T02:52:14.667Z,0
2017-08-10T02:53:14.664Z,0
2017-08-10T02:54:14.663Z,0
2017-08-10T02:55:14.605Z,0
2017-08-10T02:56:14.671Z,0
2017-08-10T02:57:14.611Z,0
2017-08-10T02:58:14.619Z,0
2017-08-10T02:59:14.649Z,0
2017-08-10T03:00:14.653Z,0
2017-08-10T03:01:14.686Z,0
2017-08-10T03:02:14.675Z,0
2017-08-10T03:03:14.622Z,0
2017-08-10T03:04:14.688Z,0
2017-08-10T03:05:14.653Z,0
2017-08-10T03:06:14.655Z,0
2017-08-10T03:07:14.656Z,0
2017-08-10T03:08:14.688Z,0
2017-08-10T03:09:14.691Z,0
2017-08-10T03:10:14.675Z,0
2017-08-10T03:11:14.718Z,0
2017-08-10T03:12:14.633Z,0
2017-08-10T03:13:14.687Z,0
2017-08-10T03:14:14.655Z,0
2017-08-10T03:15:14.625Z,0
2017-08-10T03:16:14.695Z,0
2017-08-10T03:17:14.657Z,0
2017-08-10T03:18:14.652Z,0
2017-08-10T03:19:14.625Z,0
2017-08-10T03:20:14.683Z,0
2017-08-10T03:21:14.682Z,0
2017-08-10T03:22:14.653Z,0
2017-08-10T03:23:14.689Z,0
2017-08-10T03:24:14.652Z,0
2017-08-10T03:25:14.657Z,0
2017-08-10T03:26:14.654Z,0
2017-08-10T03:27:14.685Z,0
2017-08-10T03:28:14.659Z,0
2017-08-10T03:29:14.598Z,0
2017-08-10T03:30:14.634Z,0
2017-08-10T03:31:14.606Z,0
2017-08-10T03:32:14.660Z,0
2017-08-10T03:33:14.584Z,0
2017-08-10T03:34:14.658Z,0
2017-08-10T03:35:14.668Z,0
2017-08-10T03:36:14.618Z,0
2017-08-10T03:37:14.636Z,0
2017-08-10T03:38:14.693Z,0
2017-08-10T03:39:14.659Z,0
2017-08-10T03:40:14.696Z,0
2017-08-10T03:41:14.628Z,0
2017-08-10T03:42:14.696Z,0
2017-08-10T03:43:14.696Z,0
2017-08-10T03:44:14.662Z,0
2017-08-10T03:45:14.694Z,0
2017-08-10T03:46:14.663Z,0
2017-08-10T03:47:14.640Z,0
2017-08-10T03:48:14.660Z,0
2017-08-10T03:49:14.737Z,0
2017-08-10T03:50:14.732Z,0
2017-08-10T03:51:14.648Z,0
2017-08-10T03:52:14.677Z,0
2017-08-10T03:53:14.698Z,0
2017-08-10T03:54:14.653Z,0
2017-08-10T03:55:14.651Z,0
2017-08-10T03:56:14.646Z,0
2017-08-10T03:57:14.672Z,0
2017-08-10T03:58:14.685Z,0
2017-08-10T03:59:14.622Z,0
2017-08-10T04:00:14.660Z,0
2017-08-10T04:01:14.625Z,0
2017-08-10T04:02:14.677Z,0
2017-08-10T04:03:14.655Z,0
2017-08-10T04:04:14.623Z,0
2017-08-10T04:05:14.641Z,0
2017-08-10T04:06:14.651Z,0
2017-08-10T04:07:14.721Z,0
2017-08-10T04:08:14.676Z,0
2017-08-10T04:09:14.594Z,0
2017-08-10T04:10:14.706Z,0
2017-08-10T04:11:14.672Z,0
2017-08-10T04:12:14.668Z,0
2017-08-10T04:13:14.652Z,0
2017-08-10T04:14:14.639Z,0
2017-08-10T04:15:14.642Z,0
2017-08-10T04:16:14.676Z,0
2017-08-10T04:17:14.628Z,0
2017-08-10T04:18:14.597Z,0
2017-08-10T04:19:14.734Z,0
2017-08-10T04:20:14.694Z,0
2017-08-10T04:21:14.663Z,0
2017-08-10T04:22:14.741Z,0
2017-08-10T04:23:14.695Z,0
2017-08-10T04:24:14.669Z,0
2017-08-10T04:25:14.691Z,0
2017-08-10T04:26:14.703Z,0
2017-08-10T04:27:14.698Z,0
2017-08-10T04:28:14.691Z,0
2017-08-10T04:29:14.691Z,0
2017-08-10T04:30:14.726Z,0
2017-08-10T04:31:14.693Z,0
2017-08-10T04:32:14.694Z,0
2017-08-10T04:33:14.692Z,0
2017-08-10T04:34:14.732Z,0
2017-08-10T04:35:14.661Z,0
2017-08-10T04:36:14.671Z,0
2017-08-10T04:37:14.732Z,0
2017-08-10T04:38:14.720Z,0
2017-08-10T04:39:14.668Z,0
2017-08-10T04:40:14.674Z,0
2017-08-10T04:41:14.670Z,0
2017-08-10T04:42:14.704Z,0
2017-08-10T04:43:14.731Z,0
2017-08-10T04:44:14.737Z,0
2017-08-10T04:45:14.705Z,0
2017-08-10T04:46:14.740Z,0
2017-08-10T04:47:14.734Z,0
2017-08-10T04:48:14.731Z,0
2017-08-10T04:49:14.660Z,0
2017-08-10T04:50:14.693Z,0
2017-08-10T04:51:14.700Z,0
2017-08-10T04:52:14.687Z,0
2017-08-10T04:53:14.677Z,0
2017-08-10T04:54:14.701Z,0
2017-08-10T04:55:14.676Z,0
2017-08-10T04:56:14.681Z,0
2017-08-10T04:57:14.748Z,0
2017-08-10T04:58:14.707Z,0
2017-08-10T04:59:14.689Z,0
2017-08-10T05:00:14.719Z,0
2017-08-10T05:01:14.720Z,0
2017-08-10T05:02:14.763Z,0
2017-08-10T05:03:14.743Z,0
2017-08-10T05:04:14.721Z,0
2017-08-10T05:05:14.721Z,0
2017-08-10T05:06:14.707Z,0
2017-08-10T05:07:14.777Z,0
2017-08-10T05:08:14.713Z,0
2017-08-10T05:09:14.685Z,0
2017-08-10T05:10:14.783Z,0
2017-08-10T05:11:14.719Z,0
2017-08-10T05:12:14.784Z,0
2017-08-10T05:13:14.729Z,0
2017-08-10T05:14:14.721Z,0
2017-08-10T05:15:14.697Z,0
2017-08-10T05:16:14.787Z,14
2017-08-10T05:17:14.719Z,16
2017-08-10T05:18:14.734Z,17
2017-08-10T05:19:14.749Z,18
2017-08-10T05:20:14.677Z,19
2017-08-10T05:21:14.709Z,20
2017-08-10T05:22:14.633Z,20
2017-08-10T05:23:14.710Z,21
2017-08-10T05:24:14.714Z,24
2017-08-10T05:25:14.634Z,26
2017-08-10T05:26:14.747Z,28
2017-08-10T05:27:14.695Z,29
2017-08-10T05:28:14.718Z,30
2017-08-10T05:29:14.775Z,29
2017-08-10T05:30:14.758Z,27
2017-08-10T05:31:14.775Z,25
2017-08-10T05:32:14.775Z,24
2017-08-10T05:33:14.739Z,23
2017-08-10T05:34:14.767Z,22
2017-08-10T05:35:14.779Z,21
2017-08-10T05:36:14.730Z,21
2017-08-10T05:37:14.745Z,20
2017-08-10T05:38:14.780Z,19
2017-08-10T05:39:14.726Z,17
2017-08-10T05:40:14.729Z,14
2017-08-10T05:41:14.778Z,12
2017-08-10T05:42:14.785Z,9
2017-08-10T05:43:14.798Z,7
2017-08-10T05:44:14.762Z,6
2017-08-10T05:45:14.800Z,4
2017-08-10T05:46:14.798Z,0
2017-08-10T05:47:14.778Z,0
2017-08-10T05:48:14.799Z,0
2017-08-10T05:49:14.775Z,0
2017-08-10T05:50:14.719Z,0
2017-08-10T05:51:14.714Z,0
2017-08-10T05:52:14.747Z,0
2017-08-10T05:53:14.723Z,0
2017-08-10T05:54:14.782Z,0
2017-08-10T05:55:14.785Z,0
2017-08-10T05:56:14.772Z,0
2017-08-10T05:57:14.778Z,0
2017-08-10T05:58:14.777Z,0
2017-08-10T05:59:14.808Z,0
2017-08-10T06:00:14.718Z,0
2017-08-10T06:01:14.759Z,0
2017-08-10T06:02:14.722Z,0
2017-08-10T06:03:14.788Z,0
2017-08-10T06:04:14.759Z,0
2017-08-10T06:05:14.797Z,0
2017-08-10T06:06:14.764Z,0
2017-08-10T06:07:14.789Z,0
2017-08-10T06:08:14.728Z,0
2017-08-10T06:09:14.741Z,0
2017-08-10T06:10:14.704Z,0
2017-08-10T06:11:14.788Z,19
2017-08-10T06:12:14.728Z,24
2017-08-10T06:13:14.869Z,28
2017-08-10T06:14:14.724Z,37
2017-08-10T06:15:14.790Z,43
2017-08-10T06:16:14.759Z,51
2017-08-10T06:17:14.735Z,56
2017-08-10T06:18:14.728Z,61
2017-08-10T06:19:14.734Z,65
2017-08-10T06:20:14.762Z,70
2017-08-10T06:21:14.762Z,73
2017-08-10T06:22:14.766Z,77
2017-08-10T06:23:14.761Z,84
2017-08-10T06:24:14.803Z,89
2017-08-10T06:25:14.737Z,93
2017-08-10T06:26:14.773Z,92
2017-08-10T06:27:14.772Z,89
2017-08-10T06:28:14.738Z,85
2017-08-10T06:29:14.762Z,83
2017-08-10T06:30:14.740Z,83
2017-08-10T06:31:14.829Z,85
2017-08-10T06:32:14.775Z,91
2017-08-10T06:33:14.795Z,96
2017-08-10T06:34:14.760Z,100
2017-08-10T06:35:14.813Z,99
2017-08-10T06:36:14.808Z,93
2017-08-10T06:37:14.782Z,87
2017-08-10T06:38:14.746Z,82
2017-08-10T06:39:14.844Z,81
2017-08-10T06:40:14.779Z,81
2017-08-10T06:41:14.832Z,82
2017-08-10T06:42:14.750Z,87
2017-08-10T06:43:14.781Z,88
2017-08-10T06:44:14.752Z,88
2017-08-10T06:45:14.754Z,86
2017-08-10T06:46:14.746Z,84
2017-08-10T06:47:14.801Z,82
2017-08-10T06:48:14.783Z,78
2017-08-10T06:49:14.739Z,77
2017-08-10T06:50:14.800Z,78
2017-08-10T06:51:14.822Z,80
2017-08-10T06:52:14.801Z,85
2017-08-10T06:53:14.799Z,88
2017-08-10T06:54:14.740Z,94
2017-08-10T06:55:14.773Z,97
2017-08-10T06:56:14.774Z,100
2017-08-10T06:58:14.807Z,98
2017-08-10T06:59:14.844Z,97
2017-08-10T07:00:14.758Z,96
2017-08-10T07:01:14.827Z,96
2017-08-10T07:02:14.812Z,98
2017-08-10T07:03:14.811Z,101
2017-08-10T07:04:14.782Z,106
2017-08-10T07:05:14.780Z,112
2017-08-10T07:06:14.831Z,117
2017-08-10T07:07:14.885Z,123
2017-08-10T07:08:14.782Z,125
2017-08-10T07:09:14.771Z,136
2017-08-10T07:10:14.776Z,141
2017-08-10T07:11:14.742Z,145
2017-08-10T07:12:14.817Z,147
2017-08-10T07:13:14.759Z,150
2017-08-10T07:14:14.758Z,155
2017-08-10T07:15:14.790Z,168
2017-08-10T07:16:14.788Z,181
2017-08-10T07:17:14.785Z,195
2017-08-10T07:18:14.773Z,206
2017-08-10T07:19:14.743Z,208
2017-08-10T07:20:14.774Z,214
2017-08-10T07:21:14.820Z,222
2017-08-10T07:22:14.787Z,226
2017-08-10T07:23:14.792Z,227
2017-08-10T07:24:14.829Z,226
2017-08-10T07:25:14.791Z,218
2017-08-10T07:26:14.790Z,215
2017-08-10T07:27:14.768Z,218
2017-08-10T07:28:14.792Z,222
2017-08-10T07:29:14.823Z,228
2017-08-10T07:30:14.779Z,232
2017-08-10T07:31:14.805Z,230
2017-08-10T07:32:14.779Z,231
2017-08-10T07:33:14.793Z,241
2017-08-10T07:34:14.787Z,252
2017-08-10T07:35:14.818Z,273
2017-08-10T07:36:14.811Z,310
2017-08-10T07:37:14.834Z,325
2017-08-10T07:38:14.851Z,329
2017-08-10T07:39:14.812Z,337
2017-08-10T07:40:14.867Z,347
2017-08-10T07:41:14.875Z,370
2017-08-10T07:42:14.780Z,416
2017-08-10T07:43:14.843Z,427
2017-08-10T07:44:14.844Z,416
2017-08-10T07:45:14.785Z,391
2017-08-10T07:46:14.818Z,361
2017-08-10T07:47:14.844Z,345
2017-08-10T07:48:14.851Z,330
2017-08-10T07:49:14.782Z,313
2017-08-10T07:50:14.841Z,297
2017-08-10T07:51:14.815Z,281
2017-08-10T07:52:14.875Z,271
2017-08-10T07:53:14.813Z,269
2017-08-10T07:54:14.878Z,270
2017-08-10T07:55:14.840Z,275
2017-08-10T07:56:14.787Z,277
2017-08-10T07:57:14.849Z,273
2017-08-10T07:58:14.807Z,271
2017-08-10T07:59:14.795Z,266
2017-08-10T08:00:14.858Z,265
2017-08-10T08:01:14.878Z,271
2017-08-10T08:02:14.830Z,283
2017-08-10T08:03:14.851Z,301
2017-08-10T08:04:14.796Z,310
2017-08-10T08:05:14.866Z,309
2017-08-10T08:06:14.834Z,305
2017-08-10T08:07:14.888Z,307
2017-08-10T08:08:14.850Z,309
2017-08-10T08:09:14.792Z,319
2017-08-10T08:10:14.790Z,333
2017-08-10T08:11:14.851Z,344
2017-08-10T08:12:14.819Z,352
2017-08-10T08:13:14.853Z,355
2017-08-10T08:14:14.835Z,358
2017-08-10T08:15:14.792Z,363
2017-08-10T08:16:14.825Z,386
2017-08-10T08:17:14.819Z,365
2017-08-10T08:18:14.785Z,337
2017-08-10T08:19:14.859Z,321
2017-08-10T08:20:14.770Z,314
2017-08-10T08:21:14.774Z,310
2017-08-10T08:22:14.773Z,312
2017-08-10T08:23:14.825Z,315
2017-08-10T08:24:14.827Z,319
2017-08-10T08:25:14.782Z,322
2017-08-10T08:26:14.863Z,321
2017-08-10T08:27:14.809Z,322
2017-08-10T08:28:14.758Z,319
2017-08-10T08:29:14.802Z,312
2017-08-10T08:30:14.839Z,305
2017-08-10T08:31:14.849Z,298
2017-08-10T08:32:14.811Z,285
2017-08-10T08:33:14.865Z,284
2017-08-10T08:34:14.839Z,284
2017-08-10T08:35:14.844Z,287
2017-08-10T08:36:14.905Z,298
2017-08-10T08:37:14.817Z,305
2017-08-10T08:38:14.903Z,317
2017-08-10T08:39:14.850Z,333
2017-08-10T08:40:14.803Z,340
2017-08-10T08:41:14.876Z,343
2017-08-10T08:42:14.874Z,348
2017-08-10T08:43:14.840Z,358
2017-08-10T08:44:14.866Z,371
2017-08-10T08:45:14.812Z,393
2017-08-10T08:46:14.808Z,403
2017-08-10T08:47:14.879Z,401
2017-08-10T08:48:14.839Z,387
2017-08-10T08:49:14.813Z,366
2017-08-10T08:50:14.846Z,343
2017-08-10T08:51:14.873Z,330
2017-08-10T08:52:14.800Z,328
2017-08-10T08:53:14.841Z,339
2017-08-10T08:54:14.814Z,357
2017-08-10T08:55:14.846Z,378
2017-08-10T08:56:14.878Z,392
2017-08-10T08:57:14.883Z,396
2017-08-10T08:58:14.815Z,395
2017-08-10T08:59:14.822Z,385
2017-08-10T09:00:14.820Z,365
2017-08-10T09:01:14.792Z,336
2017-08-10T09:02:14.835Z,310
2017-08-10T09:03:14.790Z,288
2017-08-10T09:04:14.791Z,277
2017-08-10T09:05:14.756Z,271
2017-08-10T09:06:14.788Z,264
2017-08-10T09:07:14.934Z,249
2017-08-10T09:08:14.799Z,229
2017-08-10T09:09:14.807Z,214
2017-08-10T09:10:14.899Z,193
2017-08-10T09:11:14.893Z,180
2017-08-10T09:12:14.854Z,165
2017-08-10T09:13:14.868Z,149
2017-08-10T09:14:14.907Z,142
2017-08-10T09:15:14.888Z,139
2017-08-10T09:16:14.896Z,139
2017-08-10T09:17:14.908Z,135
2017-08-10T09:18:14.890Z,134
2017-08-10T09:19:14.838Z,135
2017-08-10T09:20:14.932Z,140
2017-08-10T09:21:14.909Z,148
2017-08-10T09:22:14.907Z,156
2017-08-10T09:23:14.936Z,167
2017-08-10T09:24:14.904Z,176
2017-08-10T09:25:14.844Z,180
2017-08-10T09:26:14.859Z,186
2017-08-10T09:27:14.914Z,192
2017-08-10T09:28:14.914Z,207
2017-08-10T09:29:14.981Z,228
2017-08-10T09:30:14.813Z,258
2017-08-10T09:31:14.872Z,291
2017-08-10T09:32:14.843Z,327
2017-08-10T09:33:14.869Z,365
2017-08-10T09:34:14.878Z,382
2017-08-10T09:35:14.841Z,400
2017-08-10T09:36:14.873Z,431
2017-08-10T09:37:14.849Z,474
2017-08-10T09:38:14.842Z,506
2017-08-10T09:39:14.816Z,560
2017-08-10T09:40:14.827Z,579
2017-08-10T09:41:14.916Z,573
2017-08-10T09:42:14.844Z,547
2017-08-10T09:43:14.852Z,494
2017-08-10T09:44:14.822Z,452
2017-08-10T09:45:14.869Z,412
2017-08-10T09:46:14.881Z,373
2017-08-10T09:47:14.855Z,343
2017-08-10T09:48:14.870Z,321
2017-08-10T09:49:14.876Z,301
2017-08-10T09:50:14.858Z,298
2017-08-10T09:51:14.915Z,317
2017-08-10T09:52:14.854Z,357
2017-08-10T09:53:14.866Z,415
2017-08-10T09:54:14.882Z,458
2017-08-10T09:55:14.877Z,486
2017-08-10T09:56:14.881Z,479
2017-08-10T09:57:14.881Z,458
2017-08-10T09:58:14.854Z,433
2017-08-10T09:59:14.871Z,410
2017-08-10T10:00:14.889Z,390
2017-08-10T10:01:14.897Z,383
2017-08-10T10:02:14.949Z,388
2017-08-10T10:03:14.880Z,408
2017-08-10T10:04:14.899Z,434
2017-08-10T10:05:14.900Z,456
2017-08-10T10:06:14.921Z,467
2017-08-10T10:07:14.862Z,465
2017-08-10T10:08:14.936Z,439
2017-08-10T10:09:14.885Z,426
2017-08-10T10:10:14.920Z,412
2017-08-10T10:11:14.887Z,403
2017-08-10T10:12:14.849Z,397
2017-08-10T10:13:14.887Z,398
2017-08-10T10:14:14.889Z,401
2017-08-10T10:15:14.892Z,415
2017-08-10T10:16:14.926Z,439
2017-08-10T10:17:14.856Z,461
2017-08-10T10:18:14.925Z,471
2017-08-10T10:19:14.924Z,484
2017-08-10T10:20:14.892Z,497
2017-08-10T10:21:14.909Z,505
2017-08-10T10:22:14.893Z,529
2017-08-10T10:23:14.888Z,552
2017-08-10T10:24:14.924Z,547
2017-08-10T10:25:14.927Z,539
2017-08-10T10:26:14.928Z,519
2017-08-10T10:27:14.862Z,500
2017-08-10T10:28:14.868Z,487
2017-08-10T10:29:14.900Z,461
2017-08-10T10:30:14.975Z,440
2017-08-10T10:31:14.904Z,415
2017-08-10T10:32:14.878Z,392
2017-08-10T10:33:14.954Z,380
2017-08-10T10:34:14.968Z,373
2017-08-10T10:35:14.903Z,374
2017-08-10T10:36:14.888Z,374
2017-08-10T10:37:14.885Z,375
2017-08-10T10:38:14.940Z,376
2017-08-10T10:39:14.919Z,375
2017-08-10T10:40:14.888Z,371
2017-08-10T10:41:14.793Z,368
2017-08-10T10:42:14.880Z,366
2017-08-10T10:43:14.880Z,363
2017-08-10T10:44:14.886Z,362
2017-08-10T10:45:14.888Z,365
2017-08-10T10:46:14.878Z,372
2017-08-10T10:47:14.903Z,379
2017-08-10T10:48:14.883Z,385
2017-08-10T10:49:14.859Z,392
2017-08-10T10:50:14.902Z,399
2017-08-10T10:51:14.867Z,404
2017-08-10T10:52:14.893Z,396
2017-08-10T10:53:14.826Z,384
2017-08-10T10:54:14.908Z,356
2017-08-10T10:55:14.887Z,328
2017-08-10T10:56:14.905Z,312
2017-08-10T10:57:14.892Z,298
2017-08-10T10:58:14.891Z,289
2017-08-10T10:59:14.942Z,285
2017-08-10T11:00:14.932Z,294
2017-08-10T11:01:14.899Z,304
2017-08-10T11:02:14.899Z,309
2017-08-10T11:03:14.900Z,310
2017-08-10T11:04:14.983Z,309
2017-08-10T11:05:14.960Z,313
2017-08-10T11:06:14.954Z,311
2017-08-10T11:07:14.927Z,307
2017-08-10T11:08:14.900Z,298
2017-08-10T11:09:14.972Z,298
2017-08-10T11:10:14.936Z,299
2017-08-10T11:11:14.941Z,309
2017-08-10T11:12:14.921Z,323
2017-08-10T11:13:14.938Z,342
2017-08-10T11:14:14.997Z,359
2017-08-10T11:15:14.966Z,363
2017-08-10T11:16:14.970Z,372
2017-08-10T11:17:14.904Z,368
2017-08-10T11:18:14.966Z,362
2017-08-10T11:19:14.906Z,354
2017-08-10T11:20:14.938Z,346
2017-08-10T11:21:14.905Z,331
2017-08-10T11:22:14.934Z,322
2017-08-10T11:23:14.934Z,316
2017-08-10T11:24:14.929Z,300
2017-08-10T11:25:14.899Z,285
2017-08-10T11:26:14.970Z,276
2017-08-10T11:27:14.905Z,282
2017-08-10T11:28:14.966Z,301
2017-08-10T11:29:14.965Z,332
2017-08-10T11:30:14.932Z,349
2017-08-10T11:31:14.978Z,351
2017-08-10T11:32:14.968Z,344
2017-08-10T11:33:14.917Z,332
2017-08-10T11:34:14.950Z,339
2017-08-10T11:35:15.001Z,341
2017-08-10T11:36:14.971Z,342
2017-08-10T11:37:14.950Z,334
2017-08-10T11:38:14.991Z,316
2017-08-10T11:39:15.012Z,296
2017-08-10T11:40:14.953Z,291
2017-08-10T11:41:14.919Z,287
2017-08-10T11:42:14.920Z,280
2017-08-10T11:43:15.017Z,266
2017-08-10T11:44:14.950Z,248
2017-08-10T11:45:14.961Z,236
2017-08-10T11:46:14.925Z,226
2017-08-10T11:47:14.934Z,221
2017-08-10T11:48:15.016Z,214
2017-08-10T11:49:15.017Z,207
2017-08-10T11:50:14.996Z,204
2017-08-10T11:51:14.963Z,199
2017-08-10T11:52:15.016Z,190
2017-08-10T11:53:14.945Z,181
2017-08-10T11:54:15.004Z,171
2017-08-10T11:55:15.018Z,162
2017-08-10T11:56:14.928Z,153
2017-08-10T11:57:14.967Z,143
2017-08-10T11:58:15.015Z,139
2017-08-10T11:59:14.999Z,136
2017-08-10T12:00:14.934Z,134
2017-08-10T12:01:14.921Z,132
2017-08-10T12:02:14.954Z,131
2017-08-10T12:03:14.987Z,130
2017-08-10T12:04:14.991Z,131
2017-08-10T12:05:14.924Z,133
2017-08-10T12:06:14.959Z,134
2017-08-10T12:07:14.987Z,134
2017-08-10T12:08:14.929Z,133
2017-08-10T12:09:14.932Z,131
2017-08-10T12:10:14.927Z,130
2017-08-10T12:11:15.004Z,127
2017-08-10T12:12:14.977Z,124
2017-08-10T12:13:15.003Z,123
2017-08-10T12:14:15.035Z,123
2017-08-10T12:15:15.004Z,123
2017-08-10T12:16:15.025Z,126
2017-08-10T12:17:15.007Z,127
2017-08-10T12:18:15.004Z,134
2017-08-10T12:19:15.009Z,140
2017-08-10T12:20:15.090Z,145
2017-08-10T12:21:15.033Z,148
2017-08-10T12:22:15.011Z,147
2017-08-10T12:23:14.983Z,144
2017-08-10T12:24:15.032Z,138
2017-08-10T12:25:14.972Z,132
2017-08-10T12:26:14.976Z,131
2017-08-10T12:27:14.951Z,131
2017-08-10T12:28:14.982Z,135
2017-08-10T12:29:14.985Z,139
2017-08-10T12:30:15.004Z,143
2017-08-10T12:31:15.001Z,146
2017-08-10T12:32:14.946Z,151
2017-08-10T12:33:14.987Z,160
2017-08-10T12:34:14.981Z,170
2017-08-10T12:35:15.016Z,182
2017-08-10T12:36:14.985Z,195
2017-08-10T12:37:14.956Z,213
2017-08-10T12:38:15.014Z,232
2017-08-10T12:39:15.049Z,247
2017-08-10T12:40:15.017Z,259
2017-08-10T12:41:15.028Z,267
2017-08-10T12:42:14.982Z,266
2017-08-10T12:43:14.998Z,262
2017-08-10T12:44:14.961Z,248
2017-08-10T12:45:14.978Z,229
2017-08-10T12:46:14.984Z,213
2017-08-10T12:47:14.990Z,173
2017-08-10T12:48:15.055Z,190
2017-08-10T12:49:14.965Z,174
2017-08-10T12:50:14.986Z,162
2017-08-10T12:51:14.988Z,150
2017-08-10T12:52:15.057Z,144
2017-08-10T12:53:14.967Z,137
2017-08-10T12:54:14.996Z,131
2017-08-10T12:55:14.961Z,131
2017-08-10T12:56:15.050Z,140
2017-08-10T12:57:15.059Z,147
2017-08-10T12:58:15.060Z,146
2017-08-10T12:59:14.998Z,148
2017-08-10T13:00:15.002Z,163
2017-08-10T13:01:14.994Z,167
2017-08-10T13:02:15.028Z,160
2017-08-10T13:03:14.997Z,152
2017-08-10T13:04:14.992Z,147
2017-08-10T13:05:15.028Z,150
2017-08-10T13:06:15.061Z,163
2017-08-10T13:07:15.027Z,184
2017-08-10T13:08:14.970Z,206
2017-08-10T13:09:14.976Z,217
2017-08-10T13:10:15.045Z,206
2017-08-10T13:11:15.047Z,196
2017-08-10T13:12:14.977Z,205
2017-08-10T13:13:15.033Z,211
2017-08-10T13:14:15.069Z,212
2017-08-10T13:15:14.975Z,210
2017-08-10T13:16:15.045Z,200
2017-08-10T13:17:15.000Z,188
2017-08-10T13:18:15.009Z,185
2017-08-10T13:19:14.998Z,185
2017-08-10T13:20:15.003Z,188
2017-08-10T13:21:15.029Z,190
2017-08-10T13:22:14.971Z,185
2017-08-10T13:23:14.972Z,174
2017-08-10T13:24:15.031Z,161
2017-08-10T13:25:14.971Z,154
2017-08-10T13:26:15.037Z,152
2017-08-10T13:27:14.974Z,150
2017-08-10T13:28:15.006Z,141
2017-08-10T13:29:15.036Z,140
2017-08-10T13:30:15.040Z,147
2017-08-10T13:31:15.113Z,154
2017-08-10T13:32:14.983Z,158
2017-08-10T13:33:14.983Z,155
2017-08-10T13:34:14.999Z,145
2017-08-10T13:35:14.979Z,140
2017-08-10T13:36:14.999Z,136
2017-08-10T13:37:14.989Z,126
2017-08-10T13:38:14.922Z,117
2017-08-10T13:39:14.922Z,110
2017-08-10T13:40:14.981Z,116
2017-08-10T13:41:14.998Z,130
2017-08-10T13:42:14.943Z,152
2017-08-10T13:43:14.959Z,167
2017-08-10T13:44:15.015Z,167
2017-08-10T13:45:14.982Z,152
2017-08-10T13:46:14.943Z,134
2017-08-10T13:47:14.949Z,132
2017-08-10T13:48:14.963Z,135
2017-08-10T13:49:15.026Z,137
2017-08-10T13:50:15.000Z,137
2017-08-10T13:51:15.015Z,131
2017-08-10T13:52:14.994Z,116
2017-08-10T13:53:15.059Z,103
2017-08-10T13:54:15.014Z,96
2017-08-10T13:55:15.013Z,95
2017-08-10T13:56:14.985Z,93
2017-08-10T13:57:15.052Z,89
2017-08-10T13:58:15.018Z,84
2017-08-10T13:59:14.992Z,82
2017-08-10T14:00:15.062Z,79
2017-08-10T14:01:14.995Z,76
2017-08-10T14:02:15.024Z,78
2017-08-10T14:03:15.061Z,86
2017-08-10T14:04:15.028Z,97
2017-08-10T14:05:15.024Z,105
2017-08-10T14:06:15.034Z,107
2017-08-10T14:07:15.068Z,106
2017-08-10T14:08:15.060Z,111
2017-08-10T14:09:15.028Z,121
2017-08-10T14:10:15.062Z,153
2017-08-10T14:11:15.044Z,186
2017-08-10T14:12:15.013Z,222
2017-08-10T14:13:15.002Z,244